Time;durP1;ratioP1;P1;durP2;ratioP2;P2;SDS_P1;SDS_P2;PMS_P1;PMS_P2;Temp;Humidity;BMP_temperature;BMP_pressure;BME280_temperature;BME280_humidity;BME280_pressure;Samples;Min_cycle;Max_cycle;Signal;HPM_P1;HPM_P2
2022/02/17 00:00:28;;;;;;;0.40;0.40;;;;;;;;;;6244044;22;20031;-85
2022/02/17 00:02:56;;;;;;;0.40;0.40;;;;;;;;;;6272898;22;20020;-83
2022/02/17 00:05:25;;;;;;;0.60;0.60;;;;;;;;;;6262375;22;20031;-82
2022/02/17 00:07:54;;;;;;;0.40;0.40;;;;;;;;;;6268828;22;20024;-86
2022/02/17 00:10:26;;;;;;;0.40;0.40;;;;;;;;;;6250419;23;20020;-87
2022/02/17 00:12:57;;;;;;;0.45;0.45;;;;;;;;;;6240355;23;20024;-86
2022/02/17 00:15:25;;;;;;;0.60;0.50;;;;;;;;;;6247285;22;20024;-86
2022/02/17 00:17:54;;;;;;;0.30;0.30;;;;;;;;;;6250308;23;20258;-86
2022/02/17 00:20:22;;;;;;;0.40;0.40;;;;;;;;;;6244157;22;20340;-87
2022/02/17 00:22:50;;;;;;;0.40;0.40;;;;;;;;;;6238325;23;20012;-89
2022/02/17 00:25:19;;;;;;;0.30;0.30;;;;;;;;;;6263183;22;20035;-86
2022/02/17 00:27:47;;;;;;;0.40;0.40;;;;;;;;;;6244372;22;20368;-87
2022/02/17 00:30:15;;;;;;;0.52;0.40;;;;;;;;;;6280473;22;20011;-86
2022/02/17 00:32:43;;;;;;;0.30;0.30;;;;;;;;;;6246836;22;20024;-83
2022/02/17 00:35:11;;;;;;;0.47;0.47;;;;;;;;;;6278778;22;20011;-88
2022/02/17 00:37:39;;;;;;;1.95;0.40;;;;;;;;;;6280492;22;20018;-88
2022/02/17 00:40:07;;;;;;;0.40;0.40;;;;;;;;;;6248605;22;20031;-89
2022/02/17 00:42:36;;;;;;;0.40;0.40;;;;;;;;;;6281017;22;20015;-88
2022/02/17 00:45:05;;;;;;;0.70;0.60;;;;;;;;;;6271508;22;20746;-88
2022/02/17 00:47:34;;;;;;;0.40;0.40;;;;;;;;;;6270437;22;20023;-89
2022/02/17 00:50:02;;;;;;;0.50;0.50;;;;;;;;;;6280941;22;20027;-89
2022/02/17 00:52:33;;;;;;;0.40;0.40;;;;;;;;;;6248187;22;20023;-89
2022/02/17 00:55:03;;;;;;;1.38;0.60;;;;;;;;;;6253210;22;20239;-88
2022/02/17 00:57:32;;;;;;;0.35;0.35;;;;;;;;;;6241565;22;20023;-83
2022/02/17 01:00:01;;;;;;;0.30;0.30;;;;;;;;;;6215752;22;20023;-85
2022/02/17 01:02:33;;;;;;;0.40;0.40;;;;;;;;;;6252789;22;20012;-86
2022/02/17 01:05:01;;;;;;;0.77;0.50;;;;;;;;;;6243950;22;20046;-85
2022/02/17 01:07:29;;;;;;;0.70;0.40;;;;;;;;;;6277192;22;20031;-83
2022/02/17 01:09:57;;;;;;;0.40;0.40;;;;;;;;;;6278981;22;20016;-85
2022/02/17 01:12:26;;;;;;;0.40;0.40;;;;;;;;;;6246575;22;20035;-86
2022/02/17 01:14:54;;;;;;;0.40;0.40;;;;;;;;;;6278493;22;20444;-84
2022/02/17 01:17:23;;;;;;;0.40;0.40;;;;;;;;;;6242404;22;20028;-85
2022/02/17 01:19:51;;;;;;;0.47;0.47;;;;;;;;;;6275152;22;20482;-86
2022/02/17 01:22:20;;;;;;;0.43;0.43;;;;;;;;;;6252292;22;20011;-87
2022/02/17 01:24:53;;;;;;;0.40;0.40;;;;;;;;;;6244544;22;20024;-86
2022/02/17 01:27:21;;;;;;;0.40;0.40;;;;;;;;;;6251176;22;20023;-85
2022/02/17 01:29:50;;;;;;;0.50;0.50;;;;;;;;;;6236913;23;20032;-86
2022/02/17 01:32:20;;;;;;;0.40;0.40;;;;;;;;;;6241546;23;20028;-87
2022/02/17 01:34:48;;;;;;;0.50;0.50;;;;;;;;;;6247761;23;20023;-83
2022/02/17 01:37:17;;;;;;;0.30;0.30;;;;;;;;;;6238796;22;20028;-84
2022/02/17 01:39:50;;;;;;;0.40;0.40;;;;;;;;;;6243526;23;20031;-86
2022/02/17 01:42:18;;;;;;;5.55;1.30;;;;;;;;;;6247273;23;20012;-86
2022/02/17 01:44:48;;;;;;;0.30;0.30;;;;;;;;;;6240125;23;20016;-87
2022/02/17 01:47:17;;;;;;;0.30;0.30;;;;;;;;;;6248706;22;20023;-86
2022/02/17 01:49:47;;;;;;;0.40;0.40;;;;;;;;;;6248699;23;20016;-87
2022/02/17 01:52:18;;;;;;;0.40;0.40;;;;;;;;;;6242215;23;20804;-89
2022/02/17 01:54:47;;;;;;;2.92;0.50;;;;;;;;;;6247292;23;20022;-88
2022/02/17 01:57:17;;;;;;;0.30;0.30;;;;;;;;;;6239737;22;20028;-88
2022/02/17 01:59:52;;;;;;;0.35;0.35;;;;;;;;;;6242753;23;20781;-85
2022/02/17 02:02:27;;;;;;;0.30;0.30;;;;;;;;;;6247276;23;20427;-86
2022/02/17 02:05:00;;;;;;;0.40;0.40;;;;;;;;;;6238511;23;20027;-85
2022/02/17 02:07:29;;;;;;;3.30;0.70;;;;;;;;;;6244984;22;20035;-84
2022/02/17 02:10:01;;;;;;;0.30;0.30;;;;;;;;;;6246430;23;20336;-87
2022/02/17 02:12:31;;;;;;;0.70;0.70;;;;;;;;;;6240438;23;20039;-88
2022/02/17 02:15:02;;;;;;;0.80;0.80;;;;;;;;;;6245859;23;20023;-81
2022/02/17 02:17:33;;;;;;;0.40;0.40;;;;;;;;;;6236430;22;20024;-87
2022/02/17 02:20:07;;;;;;;0.40;0.40;;;;;;;;;;6236293;23;20769;-86
2022/02/17 02:22:36;;;;;;;0.40;0.40;;;;;;;;;;6247359;23;20020;-87
2022/02/17 02:25:06;;;;;;;0.40;0.40;;;;;;;;;;6237921;23;20340;-86
2022/02/17 02:27:36;;;;;;;0.40;0.40;;;;;;;;;;6244872;22;20032;-85
2022/02/17 02:30:05;;;;;;;0.55;0.55;;;;;;;;;;6251027;22;20019;-85
2022/02/17 02:32:35;;;;;;;0.40;0.40;;;;;;;;;;6215896;22;20031;-86
2022/02/17 02:35:03;;;;;;;0.68;0.68;;;;;;;;;;6251302;22;20019;-84
2022/02/17 02:37:31;;;;;;;0.43;0.43;;;;;;;;;;6267759;22;20024;-85
2022/02/17 02:40:00;;;;;;;0.93;0.70;;;;;;;;;;6247136;22;20324;-84
2022/02/17 02:42:28;;;;;;;0.50;0.50;;;;;;;;;;6241187;22;20016;-86
2022/02/17 02:44:58;;;;;;;0.60;0.60;;;;;;;;;;6242121;22;20035;-84
2022/02/17 02:47:26;;;;;;;0.43;0.43;;;;;;;;;;6278631;22;20016;-85
2022/02/17 02:49:55;;;;;;;0.30;0.30;;;;;;;;;;6217684;22;20031;-84
2022/02/17 02:52:24;;;;;;;0.75;0.50;;;;;;;;;;6248141;22;20038;-85
2022/02/17 02:54:52;;;;;;;0.60;0.60;;;;;;;;;;6243196;22;20031;-86
2022/02/17 02:57:21;;;;;;;0.40;0.40;;;;;;;;;;6244726;22;20035;-86
2022/02/17 03:03:51;;;;;;;0.63;0.63;;;;;;;;;;6251707;22;20008;-88
2022/02/17 03:06:19;;;;;;;0.40;0.40;;;;;;;;;;6254404;22;20012;-86
2022/02/17 03:08:47;;;;;;;0.50;0.50;;;;;;;;;;6217487;22;20031;-86
2022/02/17 03:11:18;;;;;;;0.45;0.45;;;;;;;;;;6252263;22;20012;-87
2022/02/17 03:13:47;;;;;;;0.32;0.32;;;;;;;;;;6253965;22;20019;-87
2022/02/17 03:16:15;;;;;;;0.43;0.43;;;;;;;;;;6276153;22;20028;-84
2022/02/17 03:18:43;;;;;;;0.30;0.30;;;;;;;;;;6280640;22;20016;-87
2022/02/17 03:21:16;;;;;;;0.40;0.40;;;;;;;;;;6244467;22;20035;-87
2022/02/17 03:23:47;;;;;;;1.50;0.90;;;;;;;;;;6217321;22;20325;-86
2022/02/17 03:26:20;;;;;;;0.40;0.40;;;;;;;;;;6253415;22;20020;-87
2022/02/17 03:28:55;;;;;;;0.35;0.35;;;;;;;;;;6216455;22;20035;-87
2022/02/17 03:31:24;;;;;;;0.40;0.40;;;;;;;;;;6251509;22;20019;-88
2022/02/17 03:34:19;;;;;;;0.40;0.40;;;;;;;;;;6240453;22;20016;-84
2022/02/17 03:36:47;;;;;;;0.57;0.32;;;;;;;;;;6273178;22;20019;-88
2022/02/17 03:39:15;;;;;;;0.43;0.43;;;;;;;;;;6252317;22;20469;-86
2022/02/17 03:42:07;;;;;;;0.45;0.45;;;;;;;;;;6214173;22;20019;-84
2022/02/17 03:44:35;;;;;;;0.30;0.30;;;;;;;;;;6246462;22;20024;-87
2022/02/17 03:47:09;;;;;;;0.30;0.30;;;;;;;;;;6218235;22;20766;-86
2022/02/17 03:50:00;;;;;;;0.50;0.50;;;;;;;;;;6241894;22;20019;-85
2022/02/17 03:52:32;;;;;;;0.40;0.40;;;;;;;;;;6248972;22;20031;-85
2022/02/17 03:55:15;;;;;;;0.30;0.30;;;;;;;;;;6252111;22;20027;-85
2022/02/17 03:57:47;;;;;;;0.30;0.30;;;;;;;;;;6253222;22;20022;-85
2022/02/17 04:00:23;;;;;;;0.40;0.40;;;;;;;;;;6247361;22;20898;-85
2022/02/17 04:02:54;;;;;;;0.40;0.40;;;;;;;;;;6253795;22;20015;-87
2022/02/17 04:05:25;;;;;;;0.30;0.30;;;;;;;;;;6243158;22;20351;-86
2022/02/17 04:08:19;;;;;;;0.40;0.40;;;;;;;;;;6265577;22;20024;-88
2022/02/17 04:10:47;;;;;;;0.30;0.30;;;;;;;;;;6252165;22;20012;-86
2022/02/17 04:13:21;;;;;;;0.40;0.40;;;;;;;;;;6243978;22;20027;-83
2022/02/17 04:15:50;;;;;;;0.30;0.30;;;;;;;;;;6276183;22;20482;-82
2022/02/17 04:18:34;;;;;;;0.50;0.50;;;;;;;;;;6217722;22;20020;-82
2022/02/17 04:21:12;;;;;;;0.40;0.40;;;;;;;;;;6218378;22;20526;-86
2022/02/17 04:24:06;;;;;;;0.40;0.40;;;;;;;;;;6264019;22;20027;-86
2022/02/17 04:26:39;;;;;;;0.40;0.40;;;;;;;;;;6253975;22;20012;-87
2022/02/17 04:29:34;;;;;;;0.30;0.30;;;;;;;;;;6243629;22;20020;-86
2022/02/17 04:32:03;;;;;;;0.30;0.30;;;;;;;;;;6249056;22;20351;-85
2022/02/17 04:34:31;;;;;;;0.43;0.43;;;;;;;;;;6253488;22;20051;-87
2022/02/17 04:37:08;;;;;;;0.40;0.40;;;;;;;;;;6243928;22;20035;-85
2022/02/17 04:39:36;;;;;;;0.35;0.35;;;;;;;;;;6278278;22;20024;-87
2022/02/17 04:42:21;;;;;;;0.38;0.38;;;;;;;;;;6252587;22;20011;-85
2022/02/17 04:44:55;;;;;;;0.40;0.40;;;;;;;;;;6244567;22;20035;-87
2022/02/17 04:47:25;;;;;;;0.30;0.30;;;;;;;;;;6250923;22;20016;-87
2022/02/17 04:49:53;;;;;;;0.60;0.60;;;;;;;;;;6280064;22;20022;-85
2022/02/17 04:52:21;;;;;;;0.40;0.40;;;;;;;;;;6247317;22;20038;-85
2022/02/17 04:54:52;;;;;;;1.75;0.40;;;;;;;;;;6252322;22;20015;-87
2022/02/17 04:57:20;;;;;;;0.40;0.40;;;;;;;;;;6269911;22;20466;-83
2022/02/17 04:59:49;;;;;;;0.40;0.40;;;;;;;;;;6214756;22;20327;-82
2022/02/17 05:02:19;;;;;;;0.40;0.40;;;;;;;;;;6252343;22;20308;-87
2022/02/17 05:05:08;;;;;;;0.40;0.40;;;;;;;;;;6242945;22;20023;-85
2022/02/17 05:07:37;;;;;;;0.43;0.43;;;;;;;;;;6250360;22;20023;-85
2022/02/17 05:10:05;;;;;;;0.50;0.50;;;;;;;;;;6252475;22;20023;-82
2022/02/17 05:12:44;;;;;;;0.40;0.40;;;;;;;;;;6244731;22;20024;-85
2022/02/17 05:15:12;;;;;;;0.50;0.50;;;;;;;;;;6250522;22;20325;-81
2022/02/17 05:17:42;;;;;;;0.32;0.32;;;;;;;;;;6251882;22;20011;-83
2022/02/17 05:20:15;;;;;;;0.30;0.30;;;;;;;;;;6241676;22;20028;-85
2022/02/17 05:23:02;;;;;;;2.95;0.40;;;;;;;;;;6279783;22;20016;-84
2022/02/17 05:26:02;;;;;;;0.40;0.40;;;;;;;;;;6228137;22;20027;-82
2022/02/17 05:28:41;;;;;;;0.50;0.50;;;;;;;;;;6238257;23;20032;-84
2022/02/17 05:31:24;;;;;;;0.35;0.35;;;;;;;;;;6246157;22;20020;-84
2022/02/17 05:34:10;;;;;;;0.30;0.30;;;;;;;;;;6246917;23;20020;-87
2022/02/17 05:37:01;;;;;;;0.40;0.40;;;;;;;;;;6238234;22;20032;-85
2022/02/17 05:39:49;;;;;;;0.40;0.40;;;;;;;;;;6236740;22;20031;-87
2022/02/17 05:42:21;;;;;;;2.22;1.02;;;;;;;;;;6247785;23;20027;-84
2022/02/17 05:44:49;;;;;;;0.50;0.50;;;;;;;;;;6236623;22;20024;-87
2022/02/17 05:47:17;;;;;;;0.40;0.40;;;;;;;;;;6247077;22;20024;-85
2022/02/17 05:49:45;;;;;;;0.47;0.47;;;;;;;;;;6248305;23;20464;-85
2022/02/17 05:52:13;;;;;;;0.50;0.50;;;;;;;;;;6243412;22;20063;-81
2022/02/17 05:54:41;;;;;;;0.55;0.55;;;;;;;;;;6248625;23;20023;-85
2022/02/17 05:57:10;;;;;;;0.45;0.45;;;;;;;;;;6238265;22;20038;-81
2022/02/17 05:59:38;;;;;;;0.50;0.50;;;;;;;;;;6243746;22;20024;-85
2022/02/17 06:02:07;;;;;;;0.40;0.40;;;;;;;;;;6247379;23;20786;-88
2022/02/17 06:04:35;;;;;;;0.40;0.40;;;;;;;;;;6241359;23;20031;-85
2022/02/17 06:07:03;;;;;;;0.40;0.40;;;;;;;;;;6249009;23;20016;-89
2022/02/17 06:09:31;;;;;;;0.60;0.60;;;;;;;;;;6237714;22;20237;-88
2022/02/17 06:12:00;;;;;;;0.30;0.30;;;;;;;;;;6245737;22;20031;-87
2022/02/17 06:14:28;;;;;;;0.43;0.43;;;;;;;;;;6249092;23;20008;-88
2022/02/17 06:16:56;;;;;;;0.50;0.50;;;;;;;;;;6240706;22;20024;-86
2022/02/17 06:19:24;;;;;;;0.40;0.40;;;;;;;;;;6246654;22;20020;-89
2022/02/17 06:21:54;;;;;;;0.50;0.50;;;;;;;;;;6249623;23;20439;-88
2022/02/17 06:24:24;;;;;;;0.43;0.43;;;;;;;;;;6237637;23;20035;-89
2022/02/17 06:26:52;;;;;;;0.40;0.40;;;;;;;;;;6249580;23;20012;-90
2022/02/17 06:29:20;;;;;;;0.40;0.40;;;;;;;;;;6260734;22;20031;-90
2022/02/17 06:31:50;;;;;;;0.40;0.40;;;;;;;;;;6276418;22;20024;-87
2022/02/17 06:34:21;;;;;;;1.95;0.50;;;;;;;;;;6278879;22;20022;-84
2022/02/17 06:36:49;;;;;;;0.40;0.40;;;;;;;;;;6271966;22;20039;-86
2022/02/17 06:39:18;;;;;;;0.40;0.40;;;;;;;;;;6278694;22;20012;-86
2022/02/17 06:41:46;;;;;;;0.40;0.40;;;;;;;;;;6280714;22;20011;-87
2022/02/17 06:44:14;;;;;;;0.50;0.50;;;;;;;;;;6276315;22;20023;-89
2022/02/17 06:46:42;;;;;;;0.35;0.35;;;;;;;;;;6282435;22;20019;-90
2022/02/17 06:49:10;;;;;;;0.45;0.45;;;;;;;;;;6272516;22;20031;-87
2022/02/17 06:51:38;;;;;;;0.40;0.40;;;;;;;;;;6281253;22;20343;-89
2022/02/17 06:54:07;;;;;;;0.40;0.40;;;;;;;;;;6282294;22;20012;-89
2022/02/17 06:56:35;;;;;;;0.40;0.40;;;;;;;;;;6276208;22;20446;-89
2022/02/17 06:59:05;;;;;;;0.40;0.40;;;;;;;;;;6242990;22;20633;-88
2022/02/17 07:01:33;;;;;;;0.50;0.50;;;;;;;;;;6270119;22;20024;-89
2022/02/17 07:04:02;;;;;;;0.50;0.50;;;;;;;;;;6277310;22;20030;-83
2022/02/17 07:06:33;;;;;;;0.40;0.40;;;;;;;;;;6278994;22;20022;-81
2022/02/17 07:09:01;;;;;;;0.40;0.40;;;;;;;;;;6269894;22;20383;-81
2022/02/17 07:11:30;;;;;;;0.52;0.52;;;;;;;;;;6276465;22;20015;-81
2022/02/17 07:13:58;;;;;;;0.32;0.32;;;;;;;;;;6277953;22;20022;-79
2022/02/17 07:16:26;;;;;;;0.40;0.40;;;;;;;;;;6272284;22;20023;-78
2022/02/17 07:18:54;;;;;;;0.77;0.60;;;;;;;;;;6278598;22;20097;-82
2022/02/17 07:21:24;;;;;;;1.08;0.40;;;;;;;;;;6242147;22;20024;-82
2022/02/17 07:23:52;;;;;;;0.50;0.50;;;;;;;;;;6275212;22;20026;-81
2022/02/17 07:26:21;;;;;;;0.40;0.40;;;;;;;;;;6278946;22;20023;-80
2022/02/17 07:28:49;;;;;;;0.60;0.43;;;;;;;;;;6269065;22;20028;-81
2022/02/17 07:31:18;;;;;;;0.30;0.30;;;;;;;;;;6277126;22;20020;-83
2022/02/17 07:33:46;;;;;;;0.77;0.50;;;;;;;;;;6279786;22;20012;-81
2022/02/17 07:36:16;;;;;;;0.40;0.40;;;;;;;;;;6272173;22;20035;-82
2022/02/17 07:38:49;;;;;;;0.43;0.43;;;;;;;;;;6280142;22;20347;-79
2022/02/17 07:41:17;;;;;;;2.85;0.50;;;;;;;;;;6270283;22;20028;-80
2022/02/17 07:43:45;;;;;;;0.40;0.40;;;;;;;;;;6276273;22;20470;-80
2022/02/17 07:46:16;;;;;;;0.40;0.40;;;;;;;;;;6242909;22;20024;-79
2022/02/17 07:48:45;;;;;;;4.60;0.57;;;;;;;;;;6272616;22;21077;-81
2022/02/17 07:51:16;;;;;;;0.73;0.73;;;;;;;;;;6242359;22;20477;-80
2022/02/17 07:53:45;;;;;;;0.40;0.40;;;;;;;;;;6279407;22;20022;-80
2022/02/17 07:56:15;;;;;;;0.50;0.50;;;;;;;;;;6242243;22;20027;-80
2022/02/17 07:58:44;;;;;;;0.43;0.43;;;;;;;;;;6278987;22;20026;-80
2022/02/17 08:01:15;;;;;;;0.50;0.50;;;;;;;;;;6270703;22;20031;-80
2022/02/17 08:03:51;;;;;;;0.60;0.50;;;;;;;;;;6276705;22;20024;-80
2022/02/17 08:06:20;;;;;;;0.50;0.50;;;;;;;;;;6279689;22;20016;-82
2022/02/17 08:08:57;;;;;;;0.40;0.40;;;;;;;;;;6271325;22;20020;-81
2022/02/17 08:11:26;;;;;;;0.45;0.45;;;;;;;;;;6278406;22;20011;-79
2022/02/17 08:13:56;;;;;;;0.50;0.50;;;;;;;;;;6241381;22;20016;-80
2022/02/17 08:16:26;;;;;;;0.43;0.43;;;;;;;;;;6274123;22;20034;-80
2022/02/17 08:18:55;;;;;;;4.88;0.70;;;;;;;;;;6252764;22;20022;-79
2022/02/17 08:21:43;;;;;;;0.43;0.43;;;;;;;;;;6254972;22;20042;-80
2022/02/17 08:24:13;;;;;;;0.40;0.40;;;;;;;;;;6247950;22;20039;-79
2022/02/17 08:26:42;;;;;;;0.40;0.40;;;;;;;;;;6280209;22;20027;-80
2022/02/17 08:29:11;;;;;;;0.50;0.50;;;;;;;;;;6241818;22;20035;-81
2022/02/17 08:31:43;;;;;;;0.30;0.30;;;;;;;;;;6241757;22;20019;-80
2022/02/17 08:34:16;;;;;;;0.40;0.40;;;;;;;;;;6280474;22;20016;-80
2022/02/17 08:36:48;;;;;;;0.50;0.50;;;;;;;;;;6246030;22;20042;-82
2022/02/17 08:39:21;;;;;;;0.40;0.40;;;;;;;;;;6268660;22;20015;-78
2022/02/17 08:41:50;;;;;;;0.50;0.50;;;;;;;;;;6279713;22;20027;-80
2022/02/17 08:44:18;;;;;;;0.40;0.40;;;;;;;;;;6215670;22;20031;-80
2022/02/17 08:46:47;;;;;;;2.15;0.80;;;;;;;;;;6248880;22;20027;-80
2022/02/17 08:49:15;;;;;;;0.40;0.40;;;;;;;;;;6270000;22;20024;-81
2022/02/17 08:51:44;;;;;;;0.40;0.40;;;;;;;;;;6276801;22;20016;-80
2022/02/17 08:54:15;;;;;;;0.45;0.43;;;;;;;;;;6279557;22;20015;-80
2022/02/17 08:56:46;;;;;;;0.40;0.40;;;;;;;;;;6268701;22;20327;-80
2022/02/17 08:59:14;;;;;;;0.40;0.40;;;;;;;;;;6250846;22;20702;-81
2022/02/17 09:01:43;;;;;;;0.40;0.40;;;;;;;;;;6279920;22;20462;-80
2022/02/17 09:04:11;;;;;;;0.40;0.40;;;;;;;;;;6241715;22;20023;-81
2022/02/17 09:06:39;;;;;;;0.43;0.40;;;;;;;;;;6216966;22;20749;-81
2022/02/17 09:09:07;;;;;;;0.50;0.50;;;;;;;;;;6270414;22;20027;-82
2022/02/17 09:11:35;;;;;;;0.50;0.50;;;;;;;;;;6277264;22;20015;-81
2022/02/17 09:14:03;;;;;;;0.40;0.40;;;;;;;;;;6216854;22;20015;-82
2022/02/17 09:16:33;;;;;;;0.50;0.50;;;;;;;;;;6246458;22;20023;-82
2022/02/17 09:19:04;;;;;;;0.30;0.30;;;;;;;;;;6252690;22;20026;-81
2022/02/17 09:21:34;;;;;;;0.52;0.52;;;;;;;;;;6241646;22;20027;-80
2022/02/17 09:24:02;;;;;;;0.40;0.40;;;;;;;;;;6275190;22;20019;-82
2022/02/17 09:26:33;;;;;;;0.40;0.40;;;;;;;;;;6279938;22;20358;-87
2022/02/17 09:29:01;;;;;;;;;;;;;;;;;;6270448;22;20034;-80
2022/02/17 09:31:49;;;;;;;0.40;0.40;;;;;;;;;;6275879;22;20695;-82
2022/02/17 09:34:18;;;;;;;0.60;0.60;;;;;;;;;;6279802;22;20027;-80
2022/02/17 09:36:46;;;;;;;0.50;0.50;;;;;;;;;;6271880;22;20390;-81
2022/02/17 09:39:14;;;;;;;0.50;0.50;;;;;;;;;;6278235;22;20015;-81
2022/02/17 09:41:43;;;;;;;0.60;0.60;;;;;;;;;;6251731;22;20012;-82
2022/02/17 09:44:11;;;;;;;0.43;0.43;;;;;;;;;;6220899;22;20324;-80
2022/02/17 09:46:45;;;;;;;0.50;0.50;;;;;;;;;;6279649;22;20020;-79
2022/02/17 09:49:20;;;;;;;0.50;0.50;;;;;;;;;;6269833;22;20031;-79
2022/02/17 09:51:50;;;;;;;0.40;0.40;;;;;;;;;;6275758;22;20016;-78
2022/02/17 09:54:18;;;;;;;0.50;0.50;;;;;;;;;;6279159;22;20454;-80
2022/02/17 09:56:47;;;;;;;8.75;1.27;;;;;;;;;;6270702;22;20051;-80
2022/02/17 09:59:17;;;;;;;0.70;0.67;;;;;;;;;;6276831;22;20020;-80
2022/02/17 10:01:53;;;;;;;0.65;0.60;;;;;;;;;;6279492;22;20020;-79
2022/02/17 10:04:24;;;;;;;0.55;0.55;;;;;;;;;;6273107;22;20031;-79
2022/02/17 10:07:02;;;;;;;0.40;0.40;;;;;;;;;;6279371;22;20015;-80
2022/02/17 10:09:37;;;;;;;0.60;0.60;;;;;;;;;;6267003;22;20019;-79
2022/02/17 10:12:05;;;;;;;4.35;0.73;;;;;;;;;;6274508;22;20015;-78
2022/02/17 10:14:34;;;;;;;2.10;1.73;;;;;;;;;;6250975;22;20011;-81
2022/02/17 10:17:04;;;;;;;1.25;0.63;;;;;;;;;;6215923;22;20038;-79
2022/02/17 10:19:37;;;;;;;1.03;0.93;;;;;;;;;;6249203;22;20039;-80
2022/02/17 10:22:08;;;;;;;1.15;0.68;;;;;;;;;;6216180;22;20366;-79
2022/02/17 10:24:42;;;;;;;0.50;0.50;;;;;;;;;;6244800;22;20019;-78
2022/02/17 10:27:12;;;;;;;0.70;0.70;;;;;;;;;;6278081;22;20022;-78
2022/02/17 10:30:01;;;;;;;0.52;0.52;;;;;;;;;;6190384;22;20038;-77
2022/02/17 10:32:31;;;;;;;1.25;0.85;;;;;;;;;;6240404;22;20028;-79
2022/02/17 10:35:07;;;;;;;1.90;1.15;;;;;;;;;;6240992;22;20015;-79
2022/02/17 10:37:46;;;;;;;5.38;1.48;;;;;;;;;;6267332;22;20430;-78
2022/02/17 10:40:16;;;;;;;1.27;1.13;;;;;;;;;;6215375;22;20075;-79
2022/02/17 10:42:57;;;;;;;0.90;0.90;;;;;;;;;;6215570;22;20027;-78
2022/02/17 10:45:36;;;;;;;3.67;1.42;;;;;;;;;;6239734;22;20355;-79
2022/02/17 10:48:17;;;;;;;1.00;0.98;;;;;;;;;;6273808;22;20023;-78
2022/02/17 10:50:47;;;;;;;1.70;1.60;;;;;;;;;;6278353;22;20016;-79
2022/02/17 10:53:17;;;;;;;1.73;1.45;;;;;;;;;;6268783;22;20031;-78
2022/02/17 10:55:53;;;;;;;5.22;1.75;;;;;;;;;;6275608;22;20462;-77
2022/02/17 10:58:27;;;;;;;5.97;1.92;;;;;;;;;;6277780;22;20469;-78
2022/02/17 11:01:01;;;;;;;2.65;1.50;;;;;;;;;;6215004;22;20024;-77
2022/02/17 11:03:32;;;;;;;2.63;2.33;;;;;;;;;;6249096;22;20032;-79
2022/02/17 11:06:10;;;;;;;2.08;1.60;;;;;;;;;;6253779;22;20023;-79
2022/02/17 11:08:40;;;;;;;9.82;1.85;;;;;;;;;;6216232;22;20028;-79
2022/02/17 11:11:10;;;;;;;4.03;2.28;;;;;;;;;;6217398;22;20027;-78
2022/02/17 11:13:38;;;;;;;1.50;1.45;;;;;;;;;;6252943;22;20011;-78
2022/02/17 11:16:10;;;;;;;3.13;1.65;;;;;;;;;;6241242;22;20023;-78
2022/02/17 11:18:40;;;;;;;4.28;2.00;;;;;;;;;;6280236;22;20011;-79
2022/02/17 11:21:14;;;;;;;2.10;1.40;;;;;;;;;;6271292;22;20023;-80
2022/02/17 11:23:43;;;;;;;2.65;1.70;;;;;;;;;;6277211;22;20028;-82
2022/02/17 11:26:20;;;;;;;1.70;1.50;;;;;;;;;;6279798;22;20015;-81
2022/02/17 11:28:50;;;;;;;7.07;1.95;;;;;;;;;;6238856;22;20362;-79
2022/02/17 11:31:26;;;;;;;3.72;1.55;;;;;;;;;;6238465;22;20439;-79
2022/02/17 11:33:59;;;;;;;2.83;1.40;;;;;;;;;;6249973;23;20016;-77
2022/02/17 11:36:30;;;;;;;2.70;1.30;;;;;;;;;;6243699;22;20028;-80
2022/02/17 11:39:00;;;;;;;3.25;1.00;;;;;;;;;;6248360;23;20016;-79
2022/02/17 11:41:33;;;;;;;4.28;1.90;;;;;;;;;;6238798;22;20573;-78
2022/02/17 11:44:21;;;;;;;2.50;1.50;;;;;;;;;;6244274;22;20031;-78
2022/02/17 11:46:56;;;;;;;4.47;2.10;;;;;;;;;;6249228;23;20024;-85
2022/02/17 11:49:30;;;;;;;3.00;2.75;;;;;;;;;;6213168;23;20020;-89
2022/02/17 11:52:19;;;;;;;13.73;2.13;;;;;;;;;;6246832;22;20059;-86
2022/02/17 11:55:06;;;;;;;4.55;2.13;;;;;;;;;;6213357;23;20024;-87
2022/02/17 11:57:36;;;;;;;5.57;1.50;;;;;;;;;;6211300;23;20072;-85
2022/02/17 12:00:16;;;;;;;6.18;1.48;;;;;;;;;;6237037;23;20016;-86
2022/02/17 12:02:49;;;;;;;1.45;1.00;;;;;;;;;;6250330;23;20019;-88
2022/02/17 12:05:18;;;;;;;1.48;1.05;;;;;;;;;;6238354;23;20020;-86
2022/02/17 12:08:16;;;;;;;13.05;2.00;;;;;;;;;;6238126;22;20335;-87
2022/02/17 12:10:47;;;;;;;3.22;1.70;;;;;;;;;;6238102;23;20019;-83
2022/02/17 12:13:27;;;;;;;1.90;1.23;;;;;;;;;;6211245;23;20592;-83
2022/02/17 12:16:01;;;;;;;4.40;1.92;;;;;;;;;;6235607;22;20016;-82
2022/02/17 12:18:36;;;;;;;10.27;2.08;;;;;;;;;;6212019;23;20024;-84
2022/02/17 12:21:22;;;;;;;1.08;0.95;;;;;;;;;;6261519;22;20670;-85
2022/02/17 12:23:54;;;;;;;3.15;2.05;;;;;;;;;;6243541;23;20439;-84
2022/02/17 12:26:39;;;;;;;8.43;1.77;;;;;;;;;;6249203;23;20027;-83
2022/02/17 12:29:21;;;;;;;8.27;2.03;;;;;;;;;;6210612;23;20032;-80
2022/02/17 12:31:54;;;;;;;5.38;2.65;;;;;;;;;;6267698;22;20027;-81
2022/02/17 12:34:22;;;;;;;11.70;2.28;;;;;;;;;;6249439;23;20313;-84
2022/02/17 12:36:51;;;;;;;4.50;1.80;;;;;;;;;;6241700;22;20032;-81
2022/02/17 12:39:19;;;;;;;4.15;2.22;;;;;;;;;;6247068;22;20607;-81
2022/02/17 12:42:04;;;;;;;7.78;2.17;;;;;;;;;;6249353;23;20019;-83
2022/02/17 12:44:35;;;;;;;6.15;2.05;;;;;;;;;;6241858;22;20481;-87
2022/02/17 12:47:05;;;;;;;4.22;1.83;;;;;;;;;;6248651;23;20035;-89
2022/02/17 12:49:33;;;;;;;5.28;1.67;;;;;;;;;;6211782;23;20035;-89
2022/02/17 12:52:20;;;;;;;5.43;2.13;;;;;;;;;;6211661;23;20028;-86
2022/02/17 12:54:53;;;;;;;5.22;1.58;;;;;;;;;;6272856;22;20026;-84
2022/02/17 12:57:21;;;;;;;5.63;2.60;;;;;;;;;;6211662;23;20032;-87
2022/02/17 12:59:59;;;;;;;2.72;1.85;;;;;;;;;;6211193;23;20020;-86
2022/02/17 13:02:29;;;;;;;3.90;1.95;;;;;;;;;;6211669;23;20023;-81
2022/02/17 13:05:01;;;;;;;5.65;1.92;;;;;;;;;;6237548;22;20028;-82
2022/02/17 13:07:33;;;;;;;10.30;2.80;;;;;;;;;;6270668;22;22462;-86
2022/02/17 13:10:01;;;;;;;11.27;2.45;;;;;;;;;;6246530;23;20012;-83
2022/02/17 13:12:59;;;;;;;2.72;1.85;;;;;;;;;;6240245;23;20020;-86
2022/02/17 13:15:30;;;;;;;3.63;2.13;;;;;;;;;;6235907;22;20448;-87
2022/02/17 13:18:06;;;;;;;3.60;1.48;;;;;;;;;;6237313;23;20038;-85
2022/02/17 13:20:39;;;;;;;5.32;2.60;;;;;;;;;;6188418;22;20055;-87
2022/02/17 13:24:46;;;;;;;4.18;2.13;;;;;;;;;;5946690;24;20362;-86
2022/02/17 13:28:10;;;;;;;5.68;2.97;;;;;;;;;;5918446;23;20020;-83
2022/02/17 13:30:38;;;;;;;2.90;2.17;;;;;;;;;;6021179;23;20026;-85
2022/02/17 13:33:06;;;;;;;6.65;2.00;;;;;;;;;;6008539;23;20030;-86
2022/02/17 13:35:48;;;;;;;2.83;2.35;;;;;;;;;;6064601;23;20442;-85
2022/02/17 13:38:19;;;;;;;8.63;3.08;;;;;;;;;;6060540;23;20023;-88
2022/02/17 13:40:54;;;;;;;10.50;2.40;;;;;;;;;;6060012;23;20027;-86
2022/02/17 13:43:43;;;;;;;2.95;1.52;;;;;;;;;;6052424;23;20060;-86
2022/02/17 13:46:17;;;;;;;4.25;2.33;;;;;;;;;;6068560;23;20026;-85
2022/02/17 13:48:45;;;;;;;4.72;2.08;;;;;;;;;;6071172;23;20033;-85
2022/02/17 13:51:15;;;;;;;2.80;1.55;;;;;;;;;;6119322;23;20181;-87
2022/02/17 13:53:45;;;;;;;3.70;1.73;;;;;;;;;;6168737;23;20016;-86
2022/02/17 13:56:16;;;;;;;6.22;1.90;;;;;;;;;;6180670;23;20040;-84
2022/02/17 13:58:45;;;;;;;4.30;1.83;;;;;;;;;;6179664;23;20342;-85
2022/02/17 14:01:14;;;;;;;1.50;1.20;;;;;;;;;;6206722;23;20036;-85
2022/02/17 14:03:48;;;;;;;8.98;3.03;;;;;;;;;;6238313;22;20356;-84
2022/02/17 14:06:18;;;;;;;4.28;1.02;;;;;;;;;;6181138;23;20348;-85
2022/02/17 14:08:47;;;;;;;3.17;2.88;;;;;;;;;;6204766;22;20024;-88
2022/02/17 14:11:16;;;;;;;5.63;2.67;;;;;;;;;;6180301;22;20017;-84
2022/02/17 14:13:45;;;;;;;6.85;2.03;;;;;;;;;;6204233;23;20027;-87
2022/02/17 14:16:13;;;;;;;6.28;1.95;;;;;;;;;;6237132;22;20241;-87
2022/02/17 14:18:42;;;;;;;5.95;2.00;;;;;;;;;;6207568;23;20017;-89
2022/02/17 14:21:21;;;;;;;3.63;1.63;;;;;;;;;;6182485;23;20040;-88
2022/02/17 14:24:13;;;;;;;8.30;2.40;;;;;;;;;;6208122;22;20757;-89
2022/02/17 14:27:00;;;;;;;5.13;2.05;;;;;;;;;;6208185;23;20028;-89
2022/02/17 14:29:39;;;;;;;;;;;;;;;;;;;;;
2022/02/17 14:32:18;;;;;;;1.58;1.10;;;;;;;;;;6228350;22;20043;-89
2022/02/17 14:35:19;;;;;;;15.55;2.92;;;;;;;;;;6250737;22;20074;-87
2022/02/17 14:37:59;;;;;;;5.05;2.72;;;;;;;;;;6217608;22;20045;-88
2022/02/17 14:40:42;;;;;;;4.38;1.83;;;;;;;;;;6241055;22;20031;-89
2022/02/17 14:43:20;;;;;;;4.70;2.53;;;;;;;;;;6218132;22;20031;-88
2022/02/17 14:46:01;;;;;;;8.50;2.58;;;;;;;;;;6192820;22;20088;-89
2022/02/17 14:48:39;;;;;;;3.27;1.47;;;;;;;;;;6217840;22;20027;-89
2022/02/17 14:51:13;;;;;;;9.82;2.60;;;;;;;;;;6201567;22;20016;-91
2022/02/17 14:53:41;;;;;;;8.27;2.45;;;;;;;;;;6244198;22;20023;-87
2022/02/17 14:56:11;;;;;;;5.15;1.95;;;;;;;;;;6178514;22;20778;-89
2022/02/17 14:58:39;;;;;;;12.02;3.15;;;;;;;;;;6276903;22;20019;-90
2022/02/17 15:01:07;;;;;;;3.78;1.98;;;;;;;;;;6242629;22;20446;-89
2022/02/17 15:03:35;;;;;;;3.92;1.85;;;;;;;;;;6276783;22;20034;-90
2022/02/17 15:06:03;;;;;;;7.18;2.72;;;;;;;;;;6279068;22;20023;-86
2022/02/17 15:08:31;;;;;;;3.30;1.45;;;;;;;;;;6271916;22;20024;-86
2022/02/17 15:11:01;;;;;;;5.75;1.75;;;;;;;;;;6278579;22;20023;-87
2022/02/17 15:13:29;;;;;;;3.03;1.98;;;;;;;;;;6239554;22;20020;-84
2022/02/17 15:16:01;;;;;;;6.00;1.33;;;;;;;;;;6275179;22;20443;-87
2022/02/17 15:18:32;;;;;;;6.20;1.80;;;;;;;;;;6251448;22;20012;-84